Time;durP1;ratioP1;P1;durP2;ratioP2;P2;SDS_P1;SDS_P2;PMS_P1;PMS_P2;Temp;Humidity;BMP_temperature;BMP_pressure;BME280_temperature;BME280_humidity;BME280_pressure;Samples;Min_cycle;Max_cycle;Signal;HPM_P1;HPM_P2
2023/07/02 00:00:16;;;;;;;9.75;7.18;;;24.00;93.90;;;;;;4996573;28;20096;-94
2023/07/02 00:02:41;;;;;;;9.63;7.25;;;24.00;94.00;;;;;;4996010;28;20066;-94
2023/07/02 00:05:07;;;;;;;10.57;6.45;;;23.90;94.00;;;;;;4996423;28;20041;-94
2023/07/02 00:07:35;;;;;;;9.27;7.22;;;23.90;94.10;;;;;;4997367;28;20026;-93
2023/07/02 00:10:01;;;;;;;8.05;6.55;;;23.80;94.10;;;;;;4998509;28;20019;-93
2023/07/02 00:12:27;;;;;;;9.77;7.07;;;23.80;94.20;;;;;;4996780;28;20112;-92
2023/07/02 00:14:53;;;;;;;10.30;7.00;;;23.80;94.20;;;;;;4996715;28;20026;-93
2023/07/02 00:17:19;;;;;;;10.75;7.93;;;23.90;94.20;;;;;;4994818;28;20033;-94
2023/07/02 00:22:54;;;;;;;9.77;6.55;;;23.90;94.20;;;;;;5004313;23;20062;-81
2023/07/02 00:25:20;;;;;;;8.75;6.88;;;23.90;94.20;;;;;;5011297;28;20030;-81
2023/07/02 00:27:46;;;;;;;11.65;8.38;;;23.90;94.20;;;;;;5015074;28;20343;-81
2023/07/02 00:30:12;;;;;;;8.63;6.82;;;23.80;94.30;;;;;;5015754;28;20038;-81
2023/07/02 00:32:37;;;;;;;9.57;7.60;;;23.80;94.30;;;;;;5015564;28;20033;-81
2023/07/02 00:35:03;;;;;;;9.52;7.53;;;23.80;94.40;;;;;;5015783;28;20030;-81
2023/07/02 00:37:29;;;;;;;10.52;7.38;;;23.70;94.40;;;;;;5015875;28;20034;-81
2023/07/02 00:39:54;;;;;;;9.10;7.32;;;23.60;94.50;;;;;;4999991;28;20042;-81
2023/07/02 00:42:21;;;;;;;9.63;7.28;;;23.60;94.60;;;;;;5015631;28;20459;-81
2023/07/02 00:44:46;;;;;;;11.90;8.80;;;23.60;94.60;;;;;;5003855;28;20461;-80
2023/07/02 00:47:13;;;;;;;10.10;7.45;;;23.60;94.60;;;;;;4999807;28;20018;-76
2023/07/02 00:49:39;;;;;;;13.55;9.88;;;23.60;94.60;;;;;;5010974;28;20029;-76
2023/07/02 00:52:06;;;;;;;10.65;7.47;;;23.60;94.60;;;;;;5003565;28;20084;-77
2023/07/02 00:54:31;;;;;;;12.57;8.57;;;23.60;94.60;;;;;;5004536;28;20113;-77
2023/07/02 00:57:02;;;;;;;11.05;7.60;;;23.60;94.60;;;;;;4995345;28;20565;-77
2023/07/02 00:59:34;;;;;;;10.30;8.05;;;23.60;94.60;;;;;;4995027;28;20022;-77
2023/07/02 01:01:59;;;;;;;10.48;8.07;;;23.50;94.60;;;;;;4995353;28;20026;-76
2023/07/02 01:04:27;;;;;;;10.95;8.30;;;23.50;94.60;;;;;;4978352;28;20037;-77
2023/07/02 01:06:57;;;;;;;11.13;8.48;;;23.40;94.70;;;;;;4996398;28;20447;-76
2023/07/02 01:09:26;;;;;;;10.00;8.13;;;23.40;94.70;;;;;;5006689;28;20029;-77
2023/07/02 01:12:00;;;;;;;11.95;8.48;;;23.40;94.60;;;;;;5015149;28;20045;-77
2023/07/02 01:14:28;;;;;;;12.15;8.95;;;23.50;94.70;;;;;;5015263;28;20042;-76
2023/07/02 01:16:55;;;;;;;9.73;7.97;;;23.50;94.60;;;;;;4997617;28;20053;-76
2023/07/02 01:19:54;;;;;;;9.85;8.23;;;23.50;94.60;;;;;;5014749;28;20095;-76
2023/07/02 01:22:24;;;;;;;10.73;8.77;;;23.60;94.40;;;;;;4996435;28;20470;-76
2023/07/02 01:24:53;;;;;;;10.40;8.65;;;23.60;94.40;;;;;;5010136;28;20061;-76
2023/07/02 01:27:20;;;;;;;9.65;8.15;;;23.60;94.40;;;;;;5014560;28;20025;-77
2023/07/02 01:29:46;;;;;;;10.30;7.45;;;23.60;94.30;;;;;;5014775;28;20017;-77
2023/07/02 01:32:13;;;;;;;14.65;10.27;;;23.60;94.40;;;;;;5014353;28;20054;-77
2023/07/02 01:34:39;;;;;;;13.52;9.57;;;23.50;94.40;;;;;;5012895;28;20026;-77
2023/07/02 01:37:05;;;;;;;10.60;8.27;;;23.50;94.40;;;;;;5014178;28;20069;-77
2023/07/02 01:39:31;;;;;;;10.98;8.23;;;23.50;94.40;;;;;;5014843;28;20053;-77
2023/07/02 01:42:15;;;;;;;11.00;8.25;;;23.50;94.40;;;;;;5014135;28;20033;-77
2023/07/02 01:44:43;;;;;;;10.90;8.80;;;23.50;94.40;;;;;;4997061;28;20117;-77
2023/07/02 01:47:08;;;;;;;11.60;8.80;;;23.50;94.40;;;;;;5012841;28;20041;-77
2023/07/02 01:49:36;;;;;;;11.52;9.00;;;23.60;94.30;;;;;;5011825;28;20021;-77
2023/07/02 01:52:02;;;;;;;11.27;8.63;;;23.60;94.20;;;;;;5013425;28;20466;-77
2023/07/02 01:54:28;;;;;;;9.95;7.80;;;23.60;94.30;;;;;;5014476;28;20116;-77
2023/07/02 01:56:57;;;;;;;10.85;8.23;;;23.60;94.30;;;;;;5014418;28;20037;-77
2023/07/02 01:59:23;;;;;;;11.07;8.32;;;23.60;94.20;;;;;;5014440;28;20026;-77
2023/07/02 02:01:48;;;;;;;12.70;9.02;;;23.60;94.00;;;;;;4996534;28;20100;-77
2023/07/02 02:04:14;;;;;;;13.05;8.45;;;23.60;93.90;;;;;;5014264;28;20041;-77
2023/07/02 02:06:41;;;;;;;9.43;7.55;;;23.60;93.90;;;;;;5013994;28;20026;-77
2023/07/02 02:09:09;;;;;;;13.85;8.93;;;23.60;93.80;;;;;;5013520;28;20474;-77
2023/07/02 02:11:39;;;;;;;9.52;7.70;;;23.60;93.80;;;;;;5013924;28;20030;-77
2023/07/02 02:14:04;;;;;;;;;;;23.60;93.70;;;;;;5014186;28;20053;-77
2023/07/02 02:16:30;;;;;;;9.35;7.45;;;23.60;93.70;;;;;;5014345;28;19990;-77
2023/07/02 02:18:56;;;;;;;10.45;8.18;;;23.60;93.70;;;;;;5013690;28;20061;-77
2023/07/02 02:21:22;;;;;;;9.63;7.22;;;23.60;93.70;;;;;;4997788;28;20050;-77
2023/07/02 02:23:48;;;;;;;11.70;8.25;;;23.70;93.60;;;;;;4994190;28;20031;-76
2023/07/02 02:26:15;;;;;;;11.98;7.90;;;23.60;93.60;;;;;;4994367;28;20394;-76
2023/07/02 02:28:41;;;;;;;10.95;8.18;;;23.60;93.60;;;;;;4994033;28;20030;-76
2023/07/02 02:31:07;;;;;;;10.45;7.32;;;23.70;93.60;;;;;;4976272;28;20030;-76
2023/07/02 02:33:35;;;;;;;11.25;7.70;;;23.60;93.50;;;;;;4994774;28;20065;-77
2023/07/02 02:36:03;;;;;;;10.32;7.90;;;23.60;93.60;;;;;;4994100;28;20030;-77
2023/07/02 02:38:29;;;;;;;11.55;8.05;;;23.70;93.60;;;;;;4993992;28;20026;-76
2023/07/02 02:40:55;;;;;;;11.68;7.85;;;23.70;93.50;;;;;;4994171;28;20031;-77
2023/07/02 02:43:21;;;;;;;14.30;8.75;;;23.70;93.50;;;;;;4993100;28;20426;-77
2023/07/02 02:45:48;;;;;;;13.40;8.70;;;23.70;93.40;;;;;;4993856;28;20050;-77
2023/07/02 02:48:13;;;;;;;10.23;8.00;;;23.60;93.40;;;;;;5006351;28;20026;-77
2023/07/02 02:50:41;;;;;;;13.13;8.13;;;23.60;93.30;;;;;;5013159;28;20029;-77
2023/07/02 02:53:07;;;;;;;12.15;8.50;;;23.60;93.40;;;;;;4995350;28;20417;-77
2023/07/02 02:55:33;;;;;;;9.88;7.88;;;23.60;93.40;;;;;;5013580;28;20041;-77
2023/07/02 02:57:59;;;;;;;11.70;8.93;;;23.70;93.40;;;;;;5011966;28;20478;-76
2023/07/02 03:00:24;;;;;;;9.50;7.68;;;23.60;93.40;;;;;;4995950;28;20083;-77
2023/07/02 03:02:50;;;;;;;11.00;8.10;;;23.60;93.40;;;;;;5013243;28;20524;-77
2023/07/02 03:05:16;;;;;;;10.80;8.77;;;23.60;93.40;;;;;;5003945;28;20609;-77
2023/07/02 03:07:42;;;;;;;12.52;9.32;;;23.70;93.40;;;;;;4993369;28;20493;-77
2023/07/02 03:10:08;;;;;;;11.73;8.93;;;23.70;93.40;;;;;;4993269;28;20026;-77
2023/07/02 03:12:34;;;;;;;12.52;9.00;;;23.60;93.40;;;;;;4976018;28;20471;-77
2023/07/02 03:15:00;;;;;;;12.68;10.52;;;23.60;93.40;;;;;;4996039;28;20036;-77
2023/07/02 03:17:25;;;;;;;12.60;9.70;;;23.60;93.40;;;;;;5012347;28;20077;-77
2023/07/02 03:19:51;;;;;;;13.48;9.63;;;23.60;93.50;;;;;;5012091;28;20480;-77
2023/07/02 03:22:17;;;;;;;12.75;9.80;;;23.60;93.50;;;;;;5012475;28;20073;-77
2023/07/02 03:24:43;;;;;;;11.73;9.25;;;23.60;93.50;;;;;;5012736;28;20100;-77
2023/07/02 03:27:08;;;;;;;11.73;9.18;;;23.60;93.50;;;;;;5012885;28;20726;-77
2023/07/02 03:29:35;;;;;;;12.55;9.73;;;23.60;93.50;;;;;;5012844;28;20411;-77
2023/07/02 03:32:01;;;;;;;10.93;8.63;;;23.60;93.50;;;;;;5012619;28;20037;-76
2023/07/02 03:34:26;;;;;;;11.77;9.20;;;23.60;93.50;;;;;;5010642;28;20034;-76
2023/07/02 03:36:52;;;;;;;13.10;8.52;;;23.60;93.50;;;;;;5012096;28;20524;-76
2023/07/02 03:39:18;;;;;;;11.90;8.23;;;23.60;93.40;;;;;;5012510;28;20029;-76
2023/07/02 03:41:44;;;;;;;11.88;8.35;;;23.60;93.40;;;;;;5012689;28;20021;-76
2023/07/02 03:44:10;;;;;;;11.70;8.48;;;23.60;93.40;;;;;;5013158;28;20098;-76
2023/07/02 03:46:36;;;;;;;15.15;8.68;;;23.60;93.40;;;;;;5013028;28;20084;-76
2023/07/02 03:49:03;;;;;;;10.65;8.30;;;23.60;93.40;;;;;;5001130;28;20489;-77
2023/07/02 03:51:29;;;;;;;9.48;8.43;;;23.60;93.50;;;;;;4995520;28;20068;-76
2023/07/02 03:53:55;;;;;;;9.68;7.93;;;23.60;93.50;;;;;;5013593;28;20034;-77
2023/07/02 03:56:21;;;;;;;10.60;8.50;;;23.60;93.50;;;;;;5016362;28;20033;-76
2023/07/02 03:58:46;;;;;;;11.88;8.80;;;23.60;93.60;;;;;;5016442;28;20109;-76
2023/07/02 04:01:12;;;;;;;12.60;7.68;;;23.50;93.60;;;;;;5016792;28;20037;-76
2023/07/02 04:03:38;;;;;;;10.50;8.23;;;23.50;93.60;;;;;;5016352;28;20361;-77
2023/07/02 04:06:06;;;;;;;10.68;8.35;;;23.50;93.70;;;;;;5016183;28;20026;-77
2023/07/02 04:08:32;;;;;;;14.00;10.07;;;23.50;93.70;;;;;;4998792;28;20069;-77
2023/07/02 04:10:58;;;;;;;11.63;9.02;;;23.50;93.70;;;;;;5016141;28;20442;-77
2023/07/02 04:13:24;;;;;;;11.30;9.38;;;23.50;93.70;;;;;;5016371;28;20025;-76
2023/07/02 04:15:49;;;;;;;13.57;8.80;;;23.50;93.70;;;;;;5015863;28;20068;-76
2023/07/02 04:18:15;;;;;;;10.20;8.23;;;23.50;93.60;;;;;;5015925;28;20042;-76
2023/07/02 04:20:41;;;;;;;12.32;9.45;;;23.50;93.60;;;;;;5015896;28;20088;-77
2023/07/02 04:23:06;;;;;;;11.35;9.02;;;23.50;93.70;;;;;;4983884;28;20046;-76
2023/07/02 04:25:33;;;;;;;14.85;9.68;;;23.50;93.70;;;;;;4996155;28;20522;-76
2023/07/02 04:27:59;;;;;;;13.35;10.52;;;23.50;93.70;;;;;;5013958;28;20101;-76
2023/07/02 04:30:25;;;;;;;13.38;9.20;;;23.40;93.70;;;;;;5016131;28;20108;-76
2023/07/02 04:32:51;;;;;;;13.23;8.90;;;23.40;93.70;;;;;;5016073;28;20056;-77
2023/07/02 04:35:18;;;;;;;13.35;8.82;;;23.50;93.70;;;;;;5015765;28;20474;-76
2023/07/02 04:37:44;;;;;;;11.65;8.98;;;23.50;93.60;;;;;;5015819;28;20037;-76
2023/07/02 04:40:10;;;;;;;11.43;9.02;;;23.40;93.60;;;;;;5015427;28;20033;-77
2023/07/02 04:42:40;;;;;;;12.52;9.23;;;23.40;93.70;;;;;;5015473;28;20030;-76
2023/07/02 04:45:08;;;;;;;11.95;9.70;;;23.40;93.80;;;;;;5009339;28;20034;-76
2023/07/02 04:47:36;;;;;;;15.20;11.50;;;23.40;93.80;;;;;;4996130;28;20514;-76
2023/07/02 04:50:02;;;;;;;10.25;8.93;;;23.40;93.90;;;;;;4996041;28;20030;-76
2023/07/02 04:52:28;;;;;;;10.90;9.15;;;23.40;93.90;;;;;;4996028;28;20085;-76
2023/07/02 04:54:55;;;;;;;13.45;9.35;;;23.40;93.90;;;;;;4995753;28;20054;-76
2023/07/02 04:57:21;;;;;;;11.23;9.18;;;23.40;93.90;;;;;;4995959;28;20026;-76
2023/07/02 04:59:47;;;;;;;13.70;10.93;;;23.40;93.90;;;;;;4995922;28;20027;-76
2023/07/02 05:02:13;;;;;;;10.95;9.05;;;23.50;93.90;;;;;;4995368;28;20493;-77
2023/07/02 05:04:39;;;;;;;13.40;9.68;;;23.40;93.80;;;;;;4995974;28;20451;-77
2023/07/02 05:07:04;;;;;;;15.43;11.25;;;23.50;93.80;;;;;;4994906;28;20026;-77
2023/07/02 05:09:30;;;;;;;11.95;9.13;;;23.50;93.70;;;;;;4995148;28;20101;-77
2023/07/02 05:11:57;;;;;;;13.02;9.00;;;23.50;93.70;;;;;;4995647;28;20030;-77
2023/07/02 05:14:23;;;;;;;12.73;9.38;;;23.50;93.70;;;;;;4995507;28;20081;-77
2023/07/02 05:16:49;;;;;;;11.30;8.30;;;23.60;93.70;;;;;;4995507;28;20027;-77
2023/07/02 05:19:15;;;;;;;10.68;8.88;;;23.60;93.60;;;;;;4995290;28;20084;-77
2023/07/02 05:21:41;;;;;;;12.77;10.02;;;23.60;93.60;;;;;;4994774;28;20038;-77
2023/07/02 05:24:07;;;;;;;11.52;8.48;;;23.70;93.60;;;;;;4995277;28;20466;-76
2023/07/02 05:26:33;;;;;;;12.20;8.77;;;23.70;93.60;;;;;;4995119;28;20081;-77
2023/07/02 05:28:59;;;;;;;11.43;7.40;;;23.70;93.60;;;;;;4995248;28;20022;-76
2023/07/02 05:31:25;;;;;;;13.40;8.18;;;23.80;93.60;;;;;;5006027;28;20022;-77
2023/07/02 05:33:50;;;;;;;10.63;8.55;;;23.80;93.50;;;;;;5014716;28;20519;-76
2023/07/02 05:36:16;;;;;;;12.02;9.13;;;23.90;93.50;;;;;;5014725;28;20069;-77
2023/07/02 05:38:42;;;;;;;12.98;8.02;;;23.90;93.40;;;;;;5014624;28;20022;-77
2023/07/02 05:41:08;;;;;;;11.07;7.50;;;24.00;93.30;;;;;;5010311;28;20140;-76
2023/07/02 05:43:33;;;;;;;10.25;7.43;;;24.00;93.20;;;;;;5012039;28;20034;-77
2023/07/02 05:46:02;;;;;;;11.95;8.45;;;24.10;93.30;;;;;;5014066;28;20030;-77
2023/07/02 05:48:28;;;;;;;10.80;7.60;;;24.10;93.20;;;;;;5009272;28;20029;-76
2023/07/02 05:50:54;;;;;;;9.77;7.57;;;24.10;93.20;;;;;;5009520;28;20018;-76
2023/07/02 05:53:20;;;;;;;9.88;8.00;;;24.10;93.20;;;;;;5014296;28;20040;-77
2023/07/02 05:55:46;;;;;;;8.57;6.70;;;24.10;93.30;;;;;;5014291;28;20037;-76
2023/07/02 05:58:12;;;;;;;9.27;7.07;;;24.10;93.30;;;;;;5014017;28;20116;-77
2023/07/02 06:00:41;;;;;;;10.48;7.78;;;24.10;93.40;;;;;;5014113;28;20426;-77
2023/07/02 06:03:07;;;;;;;8.30;6.80;;;24.10;93.40;;;;;;4996050;28;20038;-76
2023/07/02 06:05:33;;;;;;;9.90;6.90;;;24.10;93.40;;;;;;4997859;28;20720;-76
2023/07/02 06:07:58;;;;;;;9.00;6.85;;;24.10;93.40;;;;;;5013844;28;20374;-76
2023/07/02 06:10:24;;;;;;;10.13;7.25;;;24.10;93.50;;;;;;5013584;28;20026;-76
2023/07/02 06:12:50;;;;;;;10.30;7.90;;;24.20;93.50;;;;;;5013829;28;20041;-77
2023/07/02 06:15:15;;;;;;;10.52;7.53;;;24.30;93.50;;;;;;4996335;28;20036;-76
2023/07/02 06:17:41;;;;;;;11.40;6.55;;;24.30;93.50;;;;;;5012561;28;20033;-77
2023/07/02 06:20:07;;;;;;;9.65;6.95;;;24.30;93.50;;;;;;5011537;28;20356;-77
2023/07/02 06:22:33;;;;;;;9.68;7.00;;;24.40;93.50;;;;;;5013296;28;20125;-76
2023/07/02 06:24:59;;;;;;;8.70;6.47;;;24.40;93.40;;;;;;4995867;28;20108;-76
2023/07/02 06:27:24;;;;;;;10.10;7.40;;;24.50;93.40;;;;;;5013691;28;20041;-76
2023/07/02 06:29:51;;;;;;;11.30;8.10;;;24.40;93.30;;;;;;5013471;28;20022;-76
2023/07/02 06:32:17;;;;;;;8.93;6.55;;;24.50;93.30;;;;;;4997590;28;20372;-76
2023/07/02 06:34:43;;;;;;;12.43;7.55;;;24.50;93.30;;;;;;4995614;28;20038;-76
2023/07/02 06:37:09;;;;;;;10.40;7.70;;;24.50;93.30;;;;;;4994769;28;20030;-76
2023/07/02 06:39:34;;;;;;;11.30;8.20;;;24.60;93.30;;;;;;4994275;28;20513;-76
2023/07/02 06:42:00;;;;;;;12.02;7.88;;;24.60;93.20;;;;;;4994080;28;20034;-77
2023/07/02 06:44:26;;;;;;;8.68;6.97;;;24.60;93.10;;;;;;4994007;28;20022;-76
2023/07/02 06:46:51;;;;;;;8.63;6.82;;;24.70;93.20;;;;;;4996886;28;20081;-76
2023/07/02 06:49:17;;;;;;;10.85;7.57;;;24.70;93.20;;;;;;5002536;28;20065;-76
2023/07/02 06:51:43;;;;;;;9.57;6.97;;;24.70;93.20;;;;;;5013569;28;20026;-76
2023/07/02 06:54:08;;;;;;;9.57;6.90;;;24.70;93.20;;;;;;5011476;28;20026;-77
2023/07/02 06:56:34;;;;;;;8.02;6.32;;;24.80;93.20;;;;;;4985580;28;20458;-76
2023/07/02 06:59:01;;;;;;;7.45;6.05;;;24.80;93.20;;;;;;5001153;28;20113;-76
2023/07/02 07:01:26;;;;;;;9.35;6.97;;;24.80;93.10;;;;;;4998177;28;20038;-78
2023/07/02 07:03:52;;;;;;;8.93;6.63;;;24.90;93.00;;;;;;4998744;28;20081;-76
2023/07/02 07:06:18;;;;;;;10.02;6.60;;;24.90;93.00;;;;;;4994896;28;20438;-76
2023/07/02 07:08:44;;;;;;;8.38;6.05;;;25.00;93.00;;;;;;5005439;28;20121;-75
2023/07/02 07:11:09;;;;;;;9.68;6.65;;;25.00;93.00;;;;;;4998827;28;20406;-76
2023/07/02 07:13:35;;;;;;;8.43;6.10;;;25.00;92.90;;;;;;4994339;28;20026;-76
2023/07/02 07:16:01;;;;;;;8.35;6.70;;;25.10;92.80;;;;;;5009111;28;20026;-76
2023/07/02 07:18:26;;;;;;;9.35;6.90;;;25.10;92.70;;;;;;5009257;28;20038;-77
2023/07/02 07:20:55;;;;;;;9.63;6.32;;;25.10;92.50;;;;;;5003153;28;20417;-77
2023/07/02 07:23:21;;;;;;;8.38;5.75;;;25.20;92.60;;;;;;5012027;28;20034;-77
2023/07/02 07:25:47;;;;;;;7.57;5.20;;;25.20;92.50;;;;;;5012361;28;20445;-77
2023/07/02 07:28:15;;;;;;;7.82;6.03;;;25.30;92.50;;;;;;5012578;28;20022;-77
2023/07/02 07:30:44;;;;;;;11.40;5.30;;;25.40;92.50;;;;;;5016226;28;20022;-77
2023/07/02 07:33:10;;;;;;;7.53;5.13;;;25.40;92.40;;;;;;5016287;28;20100;-77
2023/07/02 07:35:36;;;;;;;7.68;5.43;;;25.50;92.30;;;;;;5016765;28;20422;-77
2023/07/02 07:38:02;;;;;;;6.15;4.95;;;25.60;92.10;;;;;;5016495;28;20374;-77
2023/07/02 07:40:28;;;;;;;7.93;5.60;;;25.70;92.00;;;;;;5016375;28;20092;-76
2023/07/02 07:42:53;;;;;;;7.13;5.70;;;25.70;91.80;;;;;;5016304;28;20064;-77
2023/07/02 07:45:19;;;;;;;8.05;6.18;;;25.80;91.60;;;;;;5016662;28;20029;-77
2023/07/02 07:47:45;;;;;;;8.63;5.97;;;25.80;91.60;;;;;;5016761;28;20029;-77
2023/07/02 07:50:10;;;;;;;8.18;5.65;;;25.80;91.70;;;;;;4998376;28;20037;-77
2023/07/02 07:52:38;;;;;;;6.60;5.90;;;25.80;91.70;;;;;;5016783;28;20033;-78
2023/07/02 07:55:04;;;;;;;6.70;5.85;;;25.80;91.60;;;;;;5016643;28;20018;-77
2023/07/02 07:57:30;;;;;;;8.68;5.60;;;25.90;91.60;;;;;;5016558;28;20102;-77
2023/07/02 07:59:55;;;;;;;8.23;5.57;;;25.90;91.60;;;;;;5016399;28;20054;-77
2023/07/02 08:02:22;;;;;;;7.57;4.80;;;26.00;91.50;;;;;;5016165;28;20115;-77
2023/07/02 08:04:49;;;;;;;5.63;4.60;;;26.10;91.40;;;;;;5016450;28;20033;-77
2023/07/02 08:07:15;;;;;;;8.75;4.57;;;26.10;91.20;;;;;;5011748;28;20027;-77
2023/07/02 08:09:41;;;;;;;7.80;5.05;;;26.20;91.10;;;;;;4996708;28;20390;-77
2023/07/02 08:12:07;;;;;;;6.70;5.03;;;26.20;90.80;;;;;;4979030;28;20041;-77
2023/07/02 08:14:34;;;;;;;7.75;4.97;;;26.30;90.80;;;;;;4978765;28;20033;-77
2023/07/02 08:17:00;;;;;;;6.53;5.15;;;26.30;90.70;;;;;;4996409;28;20027;-77
2023/07/02 08:19:26;;;;;;;8.18;5.53;;;26.40;90.70;;;;;;4996215;28;20027;-77
2023/07/02 08:21:52;;;;;;;7.78;5.28;;;26.40;90.60;;;;;;4996368;28;20499;-77
2023/07/02 08:24:18;;;;;;;5.30;3.85;;;26.50;90.40;;;;;;4996367;28;20105;-77
2023/07/02 08:26:44;;;;;;;7.35;4.70;;;26.50;90.40;;;;;;5002488;28;20051;-77
2023/07/02 08:29:10;;;;;;;9.88;5.22;;;26.50;90.40;;;;;;5004352;28;20021;-77
2023/07/02 08:31:36;;;;;;;5.60;4.25;;;26.60;90.50;;;;;;4996534;28;20088;-77
2023/07/02 08:34:02;;;;;;;5.05;4.05;;;26.70;90.50;;;;;;4997248;28;20109;-77
2023/07/02 08:36:28;;;;;;;6.43;5.10;;;26.70;90.50;;;;;;5013549;28;20104;-77
2023/07/02 08:38:54;;;;;;;6.82;5.30;;;26.80;90.40;;;;;;5004572;28;20118;-77
2023/07/02 08:41:23;;;;;;;8.60;5.13;;;26.90;90.20;;;;;;4999312;28;20038;-78
2023/07/02 08:43:49;;;;;;;6.68;4.50;;;26.90;89.90;;;;;;4996143;28;20034;-77
2023/07/02 08:46:16;;;;;;;6.78;4.70;;;26.90;89.10;;;;;;4997387;28;20106;-78
2023/07/02 08:48:42;;;;;;;5.47;4.30;;;26.90;89.10;;;;;;4998183;28;20080;-77
2023/07/02 08:51:08;;;;;;;5.15;4.10;;;26.90;89.00;;;;;;5000183;28;20030;-76
2023/07/02 08:53:34;;;;;;;8.45;5.25;;;26.90;88.80;;;;;;4996948;28;20061;-77
2023/07/02 08:56:02;;;;;;;7.30;4.63;;;27.00;89.00;;;;;;5007638;28;20033;-76
2023/07/02 08:58:28;;;;;;;8.63;4.10;;;27.00;88.50;;;;;;5015320;28;20026;-77
2023/07/02 09:01:07;;;;;;;6.03;4.50;;;26.90;88.50;;;;;;5014286;28;20409;-77
2023/07/02 09:03:33;;;;;;;7.13;4.67;;;27.10;88.30;;;;;;5015314;28;20076;-77
2023/07/02 09:05:58;;;;;;;5.63;4.47;;;27.10;88.10;;;;;;4997533;28;20021;-77
2023/07/02 09:08:28;;;;;;;5.85;4.10;;;27.10;88.10;;;;;;5015447;28;20708;-77
2023/07/02 09:11:04;;;;;;;5.18;3.60;;;27.20;88.20;;;;;;5009835;28;20034;-78
2023/07/02 09:13:30;;;;;;;5.95;4.07;;;27.30;87.70;;;;;;5015115;28;20382;-78
2023/07/02 09:15:56;;;;;;;6.82;4.40;;;27.30;87.50;;;;;;5011173;28;20038;-77
2023/07/02 09:18:26;;;;;;;7.07;4.63;;;27.40;87.20;;;;;;5000228;28;20057;-78
2023/07/02 09:20:54;;;;;;;6.80;4.57;;;27.40;86.10;;;;;;5014805;28;20036;-78
2023/07/02 09:23:20;;;;;;;5.55;4.55;;;27.40;86.20;;;;;;4999150;28;20042;-77
2023/07/02 09:25:46;;;;;;;4.72;3.72;;;27.40;85.90;;;;;;4995400;28;20054;-78
2023/07/02 09:28:21;;;;;;;4.65;3.30;;;27.40;86.20;;;;;;4983041;28;20026;-77
2023/07/02 09:30:57;;;;;;;5.85;4.00;;;27.50;86.70;;;;;;4994829;28;20057;-77
2023/07/02 09:33:27;;;;;;;5.93;4.07;;;27.50;86.20;;;;;;5012757;28;20773;-77
2023/07/02 09:35:53;;;;;;;4.75;3.60;;;27.50;86.00;;;;;;5000426;28;20467;-77
2023/07/02 09:38:20;;;;;;;6.10;3.75;;;27.60;86.00;;;;;;4999905;28;20030;-77
2023/07/02 09:40:49;;;;;;;4.65;3.40;;;27.60;85.80;;;;;;5002040;28;20123;-77
2023/07/02 09:43:16;;;;;;;6.30;3.60;;;27.60;86.20;;;;;;5001859;28;20078;-77
2023/07/02 09:45:47;;;;;;;4.15;3.50;;;27.70;85.80;;;;;;5012262;28;20037;-78
2023/07/02 09:48:17;;;;;;;6.05;4.35;;;27.70;85.90;;;;;;5006812;28;20022;-78
2023/07/02 09:50:47;;;;;;;;;;;27.70;85.40;;;;;;4995206;28;20105;-78
2023/07/02 09:53:12;;;;;;;6.10;4.07;;;27.60;85.30;;;;;;5002679;28;19905;-77
2023/07/02 09:55:39;;;;;;;5.47;4.10;;;27.60;85.60;;;;;;5007727;28;20042;-77
2023/07/02 09:58:06;;;;;;;6.03;4.13;;;27.70;85.40;;;;;;5005880;28;20045;-77
2023/07/02 10:00:31;;;;;;;5.43;4.22;;;27.70;85.40;;;;;;5005088;28;20021;-78
2023/07/02 10:02:57;;;;;;;5.97;3.88;;;27.80;85.40;;;;;;5014013;28;20021;-77
2023/07/02 10:05:27;;;;;;;5.40;3.88;;;27.80;85.30;;;;;;4994013;28;20042;-77
2023/07/02 10:07:53;;;;;;;5.65;3.97;;;27.80;85.20;;;;;;4997626;28;20033;-77
2023/07/02 10:10:31;;;;;;;5.38;4.13;;;27.80;85.10;;;;;;4997549;28;20463;-77
2023/07/02 10:12:57;;;;;;;7.28;4.82;;;27.80;84.60;;;;;;5004356;28;20034;-77
2023/07/02 10:15:28;;;;;;;5.75;4.00;;;27.90;84.70;;;;;;4998804;28;20073;-77
2023/07/02 10:17:58;;;;;;;6.68;4.00;;;27.90;84.90;;;;;;5013788;28;20038;-77
2023/07/02 10:20:38;;;;;;;5.18;3.88;;;27.90;84.70;;;;;;5014161;28;20418;-77
2023/07/02 10:23:05;;;;;;;;;;;27.90;84.50;;;;;;5011214;28;20042;-78
2023/07/02 10:25:34;;;;;;;6.25;3.90;;;27.90;84.40;;;;;;4994418;28;19913;-78
2023/07/02 10:28:22;;;;;;;6.20;5.30;;;27.80;84.80;;;;;;5012968;28;20459;-78
2023/07/02 10:30:48;;;;;;;5.70;4.28;;;27.80;84.40;;;;;;4996566;28;20431;-78
2023/07/02 10:33:15;;;;;;;7.32;4.20;;;27.70;84.40;;;;;;4995980;28;20031;-78
2023/07/02 10:35:47;;;;;;;6.78;4.40;;;27.70;84.50;;;;;;4999718;28;20073;-78
2023/07/02 10:38:18;;;;;;;7.43;4.65;;;27.80;84.80;;;;;;4984719;28;20025;-77
2023/07/02 10:40:44;;;;;;;7.18;5.03;;;27.80;85.10;;;;;;4996452;28;20471;-78
2023/07/02 10:43:10;;;;;;;5.55;4.72;;;27.80;85.30;;;;;;5013353;28;20492;-78
2023/07/02 10:45:36;;;;;;;5.88;4.55;;;28.00;85.30;;;;;;5010188;28;20113;-78
2023/07/02 10:48:03;;;;;;;5.85;4.45;;;28.00;85.00;;;;;;4995230;28;20572;-78
2023/07/02 10:50:31;;;;;;;7.75;4.65;;;28.10;84.80;;;;;;5004522;28;20073;-78
2023/07/02 10:52:57;;;;;;;6.60;4.72;;;28.20;84.80;;;;;;5012311;28;20022;-78
2023/07/02 10:55:24;;;;;;;5.90;4.88;;;28.20;84.70;;;;;;5001728;28;20548;-77
2023/07/02 10:58:02;;;;;;;5.53;4.32;;;28.30;85.20;;;;;;4994749;28;20109;-77
2023/07/02 11:00:28;;;;;;;5.35;4.40;;;28.50;85.40;;;;;;4996058;28;20066;-77
2023/07/02 11:02:54;;;;;;;5.00;4.38;;;28.60;85.20;;;;;;4999957;28;20037;-78
2023/07/02 11:05:20;;;;;;;6.68;4.80;;;28.90;85.10;;;;;;5001057;28;20019;-77
2023/07/02 11:07:46;;;;;;;6.82;4.55;;;29.10;84.60;;;;;;5017491;28;20060;-78
2023/07/02 11:10:18;;;;;;;6.47;4.45;;;29.40;84.10;;;;;;4999082;28;20044;-78
2023/07/02 11:12:45;;;;;;;6.75;4.40;;;29.60;83.00;;;;;;4999697;28;20479;-78
2023/07/02 11:15:12;;;;;;;5.45;4.00;;;29.80;82.60;;;;;;5007873;28;20038;-78
2023/07/02 11:17:40;;;;;;;5.85;4.50;;;29.90;82.00;;;;;;4997738;28;20031;-78
2023/07/02 11:20:08;;;;;;;6.70;4.55;;;30.10;81.50;;;;;;5000160;28;20038;-77
2023/07/02 11:22:35;;;;;;;5.88;4.40;;;30.30;81.00;;;;;;4979976;28;20410;-78
2023/07/02 11:25:18;;;;;;;5.35;4.32;;;30.50;80.60;;;;;;5005896;28;20466;-78
2023/07/02 11:27:44;;;;;;;5.20;4.70;;;30.70;80.10;;;;;;5000409;28;20522;-77
2023/07/02 11:30:11;;;;;;;5.88;4.20;;;30.70;79.70;;;;;;4996452;28;20141;-77
2023/07/02 11:33:06;;;;;;;7.15;4.53;;;30.60;79.30;;;;;;5001827;28;20033;-80
2023/07/02 11:35:35;;;;;;;6.22;4.25;;;30.60;78.60;;;;;;4999746;28;20053;-82
2023/07/02 11:38:01;;;;;;;5.13;4.00;;;30.60;79.10;;;;;;5016673;28;20084;-82
2023/07/02 11:40:27;;;;;;;5.22;4.55;;;30.90;79.10;;;;;;5010618;28;20030;-81
2023/07/02 11:42:52;;;;;;;6.13;4.30;;;31.30;78.80;;;;;;4996956;28;20084;-82
2023/07/02 11:45:18;;;;;;;6.63;4.72;;;31.80;78.10;;;;;;4997133;28;20019;-81
2023/07/02 11:47:44;;;;;;;4.47;3.67;;;32.30;76.80;;;;;;5010221;28;20394;-82
2023/07/02 11:50:10;;;;;;;7.13;4.35;;;32.60;75.10;;;;;;5015414;28;20478;-82
2023/07/02 11:52:36;;;;;;;7.90;4.18;;;32.80;74.40;;;;;;5016389;28;20037;-82
2023/07/02 11:55:02;;;;;;;6.32;4.43;;;32.90;73.40;;;;;;5016854;28;20439;-82
2023/07/02 11:57:27;;;;;;;5.72;4.50;;;32.90;72.80;;;;;;5012741;28;20124;-82
2023/07/02 11:59:53;;;;;;;4.93;4.10;;;33.00;72.50;;;;;;5014214;28;20034;-81
2023/07/02 12:02:19;;;;;;;5.78;4.22;;;33.20;72.10;;;;;;5004244;28;20034;-82
2023/07/02 12:04:45;;;;;;;5.78;4.05;;;33.40;71.50;;;;;;4998235;28;20060;-81
2023/07/02 12:07:13;;;;;;;3.85;3.45;;;33.70;70.30;;;;;;5006615;28;20027;-81
2023/07/02 12:09:39;;;;;;;4.65;3.83;;;33.90;70.70;;;;;;5010307;28;20054;-81
2023/07/02 12:12:05;;;;;;;5.95;4.15;;;34.00;69.60;;;;;;5000743;28;20053;-81
2023/07/02 12:14:31;;;;;;;4.65;4.18;;;34.20;69.30;;;;;;5001036;28;20096;-81
2023/07/02 12:16:57;;;;;;;7.05;3.90;;;34.40;69.00;;;;;;5011243;28;20118;-82
2023/07/02 12:19:22;;;;;;;7.07;4.40;;;34.60;68.90;;;;;;5002919;28;20721;-82
2023/07/02 12:21:48;;;;;;;4.72;4.05;;;34.80;67.70;;;;;;4999903;28;20046;-82
2023/07/02 12:24:14;;;;;;;4.88;3.75;;;34.90;66.80;;;;;;4996543;28;20109;-82
2023/07/02 12:26:40;;;;;;;5.47;3.63;;;35.00;66.50;;;;;;4997311;28;20022;-81
2023/07/02 12:29:06;;;;;;;5.88;3.83;;;35.10;65.80;;;;;;5003269;28;20030;-82
2023/07/02 12:31:32;;;;;;;6.43;3.88;;;35.30;65.20;;;;;;5011175;28;20041;-82
2023/07/02 12:33:57;;;;;;;5.30;3.65;;;35.40;65.30;;;;;;5001791;28;20042;-83
2023/07/02 12:36:24;;;;;;;5.38;3.80;;;35.50;65.20;;;;;;5011457;28;20040;-83
2023/07/02 12:38:49;;;;;;;4.38;3.83;;;35.60;63.90;;;;;;4982050;28;20023;-83
2023/07/02 12:41:15;;;;;;;7.90;3.42;;;35.60;63.60;;;;;;4996504;28;20366;-83
2023/07/02 12:43:41;;;;;;;4.45;3.72;;;35.60;63.40;;;;;;4995931;28;20487;-82